Dillingham, Alaska
Current Conditions -  °F | °C
As of 5:49 PM on Tuesday 25 Nov 2014 (Local Time) from PADL Reporting Station
Moderate Fog Moderate Fog  
Wind Chill: 20°   Ceiling: 4000
Heat Index: 27°   Visibility: 0.25mi
Dew Point: 27°   Wind: 6mph
Humidity: 100%   Direction: 20°NNE
Pressure: 30.28"   Gusts: NA
Location:  59.04°N, 158.46°W
Report Text: PADL 260249Z 02005KT 1/4SM FZFG SCT000 BKN040 M03/M03 A3028
Loading
Personal Weather Stations






























Interactive Weather Map New forecast layout! Learn more

10-Day Weather Forecast

Advertisements
Track Severe Weather on mobile